createdAt,value
2019-01-29T00:01:31.422Z,91.90
2019-01-29T00:03:59.300Z,90.51
2019-01-29T00:06:27.080Z,90.86
2019-01-29T00:08:55.606Z,91.31
2019-01-29T00:11:23.964Z,91.36
2019-01-29T00:13:52.459Z,91.14
2019-01-29T00:16:20.856Z,90.84
2019-01-29T00:18:48.603Z,90.12
2019-01-29T00:21:16.293Z,89.92
2019-01-29T00:23:44.358Z,89.77
2019-01-29T00:26:12.431Z,89.82
2019-01-29T00:28:40.828Z,89.98
2019-01-29T00:31:08.976Z,89.99
2019-01-29T00:33:36.661Z,89.95
2019-01-29T00:36:04.748Z,90.33
2019-01-29T00:38:32.210Z,90.46
2019-01-29T00:41:00.638Z,90.50
2019-01-29T00:43:28.869Z,90.27
2019-01-29T00:45:57.110Z,89.61
2019-01-29T00:48:25.227Z,89.44
2019-01-29T00:50:53.637Z,88.95
2019-01-29T00:53:21.844Z,88.54
2019-01-29T00:58:45.398Z,88.67
2019-01-29T01:01:13.688Z,88.89
2019-01-29T01:04:21.733Z,88.69
2019-01-29T01:06:50.248Z,89.03
2019-01-29T01:09:17.553Z,89.37
2019-01-29T01:12:05.199Z,89.48
2019-01-29T01:14:33.603Z,89.40
2019-01-29T01:17:01.775Z,89.22
2019-01-29T01:19:30.180Z,89.15
2019-01-29T01:21:58.648Z,89.29
2019-01-29T01:24:27.129Z,89.39
2019-01-29T01:26:55.633Z,89.25
2019-01-29T01:29:24.112Z,89.29
2019-01-29T01:31:51.611Z,88.75
2019-01-29T01:34:19.455Z,88.49
2019-01-29T01:36:47.950Z,88.72
2019-01-29T01:39:16.079Z,88.63
2019-01-29T01:41:43.953Z,88.51
2019-01-29T01:44:12.473Z,88.17
2019-01-29T01:49:36.488Z,88.87
2019-01-29T01:52:04.657Z,88.59
2019-01-29T01:54:32.830Z,88.81
2019-01-29T01:57:00.868Z,88.29
2019-01-29T01:59:28.611Z,88.45
2019-01-29T02:01:57.149Z,88.86
2019-01-29T02:04:25.590Z,88.56
2019-01-29T02:06:53.313Z,88.46
2019-01-29T02:09:21.390Z,88.72
2019-01-29T02:11:49.797Z,88.64
2019-01-29T02:14:18.254Z,88.69
2019-01-29T02:16:46.036Z,88.63
2019-01-29T02:19:13.790Z,88.56
2019-01-29T02:21:41.917Z,88.23
2019-01-29T02:24:10.357Z,88.23
2019-01-29T02:26:38.844Z,88.83
2019-01-29T02:29:06.932Z,88.99
2019-01-29T02:31:35.240Z,88.83
2019-01-29T02:34:03.218Z,88.74
2019-01-29T02:36:31.112Z,88.39
2019-01-29T02:38:58.743Z,88.43
2019-01-29T02:41:27.224Z,88.36
2019-01-29T02:43:55.330Z,88.63
2019-01-29T02:46:23.788Z,88.57
2019-01-29T02:48:52.175Z,88.11
2019-01-29T02:51:20.662Z,88.35
2019-01-29T02:53:49.040Z,88.12
2019-01-29T02:56:17.510Z,88.19
2019-01-29T02:58:45.697Z,88.30
2019-01-29T03:01:13.370Z,88.50
2019-01-29T03:03:41.357Z,88.58
2019-01-29T03:06:09.612Z,88.16
2019-01-29T03:08:37.283Z,88.07
2019-01-29T03:11:05.471Z,88.24
2019-01-29T03:13:33.296Z,88.47
2019-01-29T03:16:01.439Z,88.65
2019-01-29T03:18:29.912Z,88.57
2019-01-29T03:20:58.045Z,88.71
2019-01-29T03:23:27.472Z,88.76
2019-01-29T03:25:56.083Z,88.22
2019-01-29T03:28:24.575Z,87.75
2019-01-29T03:30:52.935Z,87.92
2019-01-29T03:33:21.341Z,87.69
2019-01-29T03:35:49.458Z,87.73
2019-01-29T03:38:17.559Z,88.23
2019-01-29T03:40:45.989Z,88.39
2019-01-29T03:43:14.383Z,88.14
2019-01-29T03:45:42.860Z,88.03
2019-01-29T03:48:10.926Z,88.08
2019-01-29T03:50:38.604Z,87.97
2019-01-29T03:53:05.989Z,88.23
2019-01-29T03:55:34.066Z,87.96
2019-01-29T03:58:02.176Z,88.26
2019-01-29T04:00:30.696Z,88.33
2019-01-29T04:02:59.119Z,88.09
2019-01-29T04:05:27.153Z,88.43
2019-01-29T04:07:55.346Z,88.48
2019-01-29T04:10:23.937Z,88.28
2019-01-29T04:12:52.020Z,88.18
2019-01-29T04:15:20.555Z,87.69
2019-01-29T04:18:28.983Z,87.90
2019-01-29T04:20:57.170Z,87.93
2019-01-29T04:23:24.524Z,87.78
2019-01-29T04:28:47.619Z,88.55
2019-01-29T04:31:16.099Z,88.22
2019-01-29T04:33:44.265Z,88.50
2019-01-29T04:36:12.383Z,88.83
2019-01-29T04:38:40.835Z,88.89
2019-01-29T04:41:09.023Z,88.17
2019-01-29T04:43:37.079Z,87.84
2019-01-29T04:46:05.532Z,87.81
2019-01-29T04:48:34.051Z,88.02
2019-01-29T04:51:02.542Z,88.30
2019-01-29T04:53:30.389Z,87.99
2019-01-29T04:55:58.905Z,87.58
2019-01-29T04:58:27.429Z,87.73
2019-01-29T05:00:55.999Z,87.46
2019-01-29T05:03:23.754Z,87.72
2019-01-29T05:05:51.523Z,87.72
2019-01-29T05:08:19.599Z,87.39
2019-01-29T05:10:48.124Z,87.13
2019-01-29T05:13:16.270Z,86.86
2019-01-29T05:15:44.719Z,86.86
2019-01-29T05:18:12.931Z,86.48
2019-01-29T05:20:41.099Z,86.62
2019-01-29T05:23:09.287Z,86.81
2019-01-29T05:25:36.704Z,86.89
2019-01-29T05:28:05.064Z,87.44
2019-01-29T05:30:33.145Z,87.18
2019-01-29T05:33:00.888Z,86.84
2019-01-29T05:35:29.370Z,87.02
2019-01-29T05:37:57.549Z,87.55
2019-01-29T05:40:25.324Z,87.16
2019-01-29T05:42:53.932Z,87.42
2019-01-29T05:45:22.661Z,88.11
2019-01-29T05:47:51.190Z,87.74
2019-01-29T05:50:19.126Z,87.89
2019-01-29T05:52:47.670Z,88.07
2019-01-29T05:55:15.305Z,87.79
2019-01-29T05:57:43.106Z,87.59
2019-01-29T06:03:10.204Z,87.87
2019-01-29T06:05:38.329Z,87.62
2019-01-29T06:08:06.340Z,87.46
2019-01-29T06:10:34.798Z,87.43
2019-01-29T06:13:02.163Z,87.79
2019-01-29T06:15:30.337Z,87.81
2019-01-29T06:17:58.152Z,88.02
2019-01-29T06:20:27.549Z,87.99
2019-01-29T06:22:55.809Z,88.10
2019-01-29T06:25:23.555Z,87.94
2019-01-29T06:27:51.690Z,88.41
2019-01-29T06:30:20.544Z,88.12
2019-01-29T06:32:49.024Z,87.99
2019-01-29T06:35:57.888Z,87.78
2019-01-29T06:38:25.980Z,87.65
2019-01-29T06:40:53.856Z,87.65
2019-01-29T06:43:22.280Z,87.92
2019-01-29T06:45:50.382Z,87.51
2019-01-29T06:48:18.429Z,87.64
2019-01-29T06:50:46.595Z,87.84
2019-01-29T06:53:14.985Z,87.50
2019-01-29T06:55:43.261Z,87.52
2019-01-29T06:58:11.780Z,87.42
2019-01-29T07:00:38.833Z,87.48
2019-01-29T07:03:07.300Z,87.24
2019-01-29T07:05:35.784Z,87.78
2019-01-29T07:08:03.645Z,87.79
2019-01-29T07:10:31.784Z,88.23
2019-01-29T07:12:59.635Z,88.34
2019-01-29T07:15:47.098Z,88.70
2019-01-29T07:18:34.434Z,88.74
2019-01-29T07:23:39.363Z,88.90
2019-01-29T07:26:07.289Z,88.39
2019-01-29T07:28:35.708Z,88.03
2019-01-29T07:31:44.245Z,87.94
2019-01-29T07:34:12.651Z,88.18
2019-01-29T07:36:40.820Z,87.85
2019-01-29T07:39:50.584Z,86.93
2019-01-29T07:42:18.807Z,86.62
2019-01-29T07:44:47.235Z,86.44
2019-01-29T07:47:15.388Z,86.15
2019-01-29T07:49:43.585Z,85.94
2019-01-29T07:52:12.929Z,85.62
2019-01-29T07:54:41.124Z,85.59
2019-01-29T07:57:09.545Z,85.77
2019-01-29T07:59:38.010Z,85.57
2019-01-29T08:02:06.536Z,85.40
2019-01-29T08:04:35.030Z,85.28
2019-01-29T08:07:03.380Z,84.68
2019-01-29T08:09:31.106Z,84.88
2019-01-29T08:11:59.127Z,85.20
2019-01-29T08:14:27.319Z,85.40
2019-01-29T08:16:55.977Z,84.78
2019-01-29T08:19:24.360Z,84.14
2019-01-29T08:21:53.015Z,83.87
2019-01-29T08:24:21.534Z,83.96
2019-01-29T08:26:49.762Z,84.29
2019-01-29T08:29:17.509Z,84.52
2019-01-29T08:31:45.646Z,84.67
2019-01-29T08:34:14.117Z,84.18
2019-01-29T08:36:42.235Z,84.15
2019-01-29T08:39:10.477Z,84.55
2019-01-29T08:41:38.525Z,84.34
2019-01-29T08:44:06.291Z,83.45
2019-01-29T08:46:34.461Z,83.33
2019-01-29T08:49:02.246Z,82.65
2019-01-29T08:51:30.631Z,82.16
2019-01-29T08:53:59.109Z,82.68
2019-01-29T08:56:27.285Z,82.54
2019-01-29T08:58:55.780Z,81.20
2019-01-29T09:01:24.320Z,81.01
2019-01-29T09:03:52.065Z,80.68
2019-01-29T09:06:19.826Z,79.77
2019-01-29T09:08:47.881Z,79.41
2019-01-29T09:11:15.756Z,79.10
2019-01-29T09:13:43.840Z,78.96
2019-01-29T09:16:11.686Z,78.60
2019-01-29T09:18:40.091Z,78.72
2019-01-29T09:21:08.183Z,78.23
2019-01-29T09:23:36.429Z,77.02
2019-01-29T09:26:04.815Z,76.94
2019-01-29T09:28:32.658Z,76.86
2019-01-29T09:31:00.416Z,77.73
2019-01-29T09:33:28.910Z,76.56
2019-01-29T09:35:57.090Z,77.79
2019-01-29T09:38:25.544Z,77.87
2019-01-29T09:40:53.712Z,77.20
2019-01-29T09:43:21.476Z,76.94
2019-01-29T09:45:49.971Z,76.95
2019-01-29T09:48:18.330Z,76.14
2019-01-29T09:50:46.937Z,75.97
2019-01-29T09:53:15.532Z,76.12
2019-01-29T09:55:43.694Z,75.60
2019-01-29T09:58:11.895Z,74.92
2019-01-29T10:00:40.400Z,75.40
2019-01-29T10:03:48.834Z,74.12
2019-01-29T10:06:16.947Z,75.00
2019-01-29T10:08:45.132Z,75.39
2019-01-29T10:11:13.615Z,73.51
2019-01-29T10:13:42.201Z,74.45
2019-01-29T10:16:09.991Z,74.12
2019-01-29T10:18:38.050Z,74.79
2019-01-29T10:21:06.652Z,73.58
2019-01-29T10:23:34.555Z,73.29
2019-01-29T10:26:02.687Z,73.36
2019-01-29T10:28:30.777Z,73.86
2019-01-29T10:30:58.937Z,73.92
2019-01-29T10:33:27.447Z,73.25
2019-01-29T10:35:55.214Z,73.04
2019-01-29T10:38:22.975Z,73.94
2019-01-29T10:40:51.261Z,72.69
2019-01-29T10:43:18.642Z,72.67
2019-01-29T10:45:46.780Z,72.40
2019-01-29T10:48:14.867Z,72.19
2019-01-29T10:50:42.707Z,71.91
2019-01-29T10:53:10.735Z,71.78
2019-01-29T10:55:47.056Z,73.22
2019-01-29T10:58:08.190Z,73.65
2019-01-29T11:00:39.033Z,71.89
2019-01-29T11:03:47.788Z,71.50
2019-01-29T11:06:15.922Z,71.33
2019-01-29T11:08:44.122Z,71.80
2019-01-29T11:11:12.711Z,70.38
2019-01-29T11:13:41.162Z,69.83
2019-01-29T11:16:09.420Z,68.67
2019-01-29T11:18:38.157Z,68.16
2019-01-29T11:21:05.960Z,67.95
2019-01-29T11:23:33.412Z,68.64
2019-01-29T11:26:01.782Z,66.71
2019-01-29T11:28:29.147Z,66.75
2019-01-29T11:30:56.907Z,66.94
2019-01-29T11:33:25.402Z,67.08
2019-01-29T11:35:53.197Z,68.66
2019-01-29T11:38:21.581Z,65.38
2019-01-29T11:40:49.393Z,65.08
2019-01-29T11:43:17.620Z,63.14
2019-01-29T11:46:05.680Z,62.82
2019-01-29T11:48:34.234Z,62.49
2019-01-29T11:51:02.719Z,62.76
2019-01-29T11:53:50.234Z,60.23
2019-01-29T11:56:18.421Z,56.84
2019-01-29T11:58:46.587Z,57.65
2019-01-29T12:01:18.044Z,55.10
2019-01-29T12:03:46.640Z,56.51
2019-01-29T12:06:15.032Z,59.60
2019-01-29T12:08:43.305Z,58.44
2019-01-29T12:11:11.448Z,59.04
2019-01-29T12:13:39.466Z,58.56
2019-01-29T12:16:07.767Z,59.71
2019-01-29T12:18:36.332Z,58.84
2019-01-29T12:21:04.621Z,59.43
2019-01-29T12:23:32.801Z,59.53
2019-01-29T12:26:00.971Z,61.97
2019-01-29T12:28:29.468Z,60.22
2019-01-29T12:30:57.321Z,58.99
2019-01-29T12:33:25.402Z,59.34
2019-01-29T12:35:53.483Z,60.26
2019-01-29T12:38:20.777Z,61.05
2019-01-29T12:40:49.223Z,60.12
2019-01-29T12:43:17.857Z,61.17
2019-01-29T12:45:48.185Z,60.76
2019-01-29T12:48:16.560Z,62.01
2019-01-29T12:53:45.184Z,65.57
2019-01-29T12:56:21.241Z,63.10
2019-01-29T12:58:43.316Z,62.25
2019-01-29T13:01:11.003Z,64.81
2019-01-29T13:03:39.180Z,64.04
2019-01-29T13:06:07.590Z,63.21
2019-01-29T13:08:35.055Z,65.90
2019-01-29T13:11:03.293Z,66.14
2019-01-29T13:13:31.382Z,65.83
2019-01-29T13:15:59.152Z,63.61
2019-01-29T13:18:27.346Z,64.00
2019-01-29T13:20:55.816Z,64.01
2019-01-29T13:23:23.992Z,65.30
2019-01-29T13:25:52.186Z,65.79
2019-01-29T13:28:19.958Z,63.45
2019-01-29T13:30:48.024Z,66.10
2019-01-29T13:33:56.180Z,67.60
2019-01-29T13:36:24.606Z,63.45
2019-01-29T13:38:53.088Z,62.54
2019-01-29T13:41:20.801Z,64.08
2019-01-29T13:43:48.641Z,63.17
2019-01-29T13:46:17.061Z,63.18
2019-01-29T13:48:44.778Z,62.09
2019-01-29T13:51:12.565Z,61.52
2019-01-29T13:53:40.396Z,60.02
2019-01-29T13:56:09.025Z,61.05
2019-01-29T13:58:37.096Z,60.28
2019-01-29T14:01:45.213Z,58.84
2019-01-29T14:04:13.672Z,60.95
2019-01-29T14:06:41.854Z,60.08
2019-01-29T14:09:10.247Z,60.32
2019-01-29T14:11:38.720Z,59.90
2019-01-29T14:14:06.891Z,60.60
2019-01-29T14:16:35.190Z,57.93
2019-01-29T14:19:22.293Z,54.29
2019-01-29T14:21:50.507Z,48.85
2019-01-29T14:24:18.997Z,51.34
2019-01-29T14:29:20.238Z,50.72
2019-01-29T14:31:48.647Z,51.49
2019-01-29T14:34:16.783Z,50.74
2019-01-29T14:37:04.375Z,50.14
2019-01-29T14:40:18.712Z,43.87
2019-01-29T14:42:48.166Z,47.33
2019-01-29T14:45:23.901Z,39.70
2019-01-29T14:47:52.283Z,42.27
2019-01-29T14:50:20.898Z,45.30
2019-01-29T14:52:48.993Z,48.00
2019-01-29T14:55:16.431Z,49.89
2019-01-29T14:57:44.838Z,53.24
2019-01-29T15:00:17.662Z,55.55
2019-01-29T15:02:46.182Z,55.30
2019-01-29T15:05:14.772Z,55.56
2019-01-29T15:07:42.564Z,56.05
2019-01-29T15:10:51.577Z,58.78
2019-01-29T15:13:19.735Z,61.76
2019-01-29T15:18:44.544Z,61.94
2019-01-29T15:21:12.817Z,60.58
2019-01-29T15:23:41.401Z,61.13
2019-01-29T15:26:09.536Z,59.69
2019-01-29T15:28:37.222Z,58.33
2019-01-29T15:31:05.668Z,56.78
2019-01-29T15:33:34.386Z,57.53
2019-01-29T15:36:03.029Z,58.11
2019-01-29T15:38:31.425Z,56.70
2019-01-29T15:40:59.523Z,57.18
2019-01-29T15:43:27.982Z,56.79
2019-01-29T15:45:56.021Z,57.23
2019-01-29T15:48:24.011Z,59.88
2019-01-29T15:50:52.216Z,59.65
2019-01-29T15:53:20.352Z,60.84
2019-01-29T15:55:48.592Z,64.35
2019-01-29T15:58:16.387Z,63.69
2019-01-29T16:00:44.494Z,63.97
2019-01-29T16:03:12.361Z,64.98
2019-01-29T16:05:40.515Z,66.35
2019-01-29T16:08:08.756Z,67.87
2019-01-29T16:11:16.807Z,70.86
2019-01-29T16:13:44.927Z,71.76
2019-01-29T16:16:13.104Z,72.17
2019-01-29T16:18:40.890Z,73.90
2019-01-29T16:21:08.722Z,75.02
2019-01-29T16:23:36.963Z,75.35
2019-01-29T16:26:05.292Z,75.92
2019-01-29T16:28:33.907Z,75.67
2019-01-29T16:31:02.467Z,76.39
2019-01-29T16:33:30.262Z,77.52
2019-01-29T16:35:58.434Z,77.46
2019-01-29T16:38:26.618Z,77.74
2019-01-29T16:41:00.407Z,77.27
2019-01-29T16:43:25.725Z,77.75
2019-01-29T16:45:54.333Z,78.55
2019-01-29T16:48:22.763Z,77.97
2019-01-29T16:50:51.412Z,77.87
2019-01-29T16:53:19.994Z,78.84
2019-01-29T16:55:48.614Z,80.04
2019-01-29T16:58:16.751Z,78.90
2019-01-29T17:00:45.500Z,77.91
2019-01-29T17:03:53.635Z,77.73
2019-01-29T17:06:21.716Z,79.10
2019-01-29T17:08:49.981Z,77.96
2019-01-29T17:11:17.767Z,77.82
2019-01-29T17:13:46.210Z,78.41
2019-01-29T17:16:14.763Z,79.67
2019-01-29T17:18:43.365Z,79.46
2019-01-29T17:21:11.627Z,79.62
2019-01-29T17:23:39.391Z,78.91
2019-01-29T17:26:06.796Z,80.11
2019-01-29T17:28:35.298Z,81.17
2019-01-29T17:31:04.041Z,80.87
2019-01-29T17:33:32.622Z,80.33
2019-01-29T17:36:00.731Z,80.82
2019-01-29T17:38:29.398Z,81.17
2019-01-29T17:40:57.789Z,81.89
2019-01-29T17:43:25.674Z,80.82
2019-01-29T17:45:53.425Z,80.51
2019-01-29T17:48:21.584Z,81.18
2019-01-29T17:50:50.094Z,81.56
2019-01-29T17:53:18.247Z,80.00
2019-01-29T17:58:55.145Z,79.30
2019-01-29T18:01:23.763Z,79.57
2019-01-29T18:03:51.512Z,80.27
2019-01-29T18:06:19.795Z,81.55
2019-01-29T18:08:49.802Z,81.15
2019-01-29T18:11:17.384Z,80.47
2019-01-29T18:13:45.870Z,82.12
2019-01-29T18:16:13.729Z,81.00
2019-01-29T18:18:41.536Z,80.84
2019-01-29T18:21:10.128Z,81.14
2019-01-29T18:23:38.540Z,80.22
2019-01-29T18:26:06.464Z,79.14
2019-01-29T18:28:34.338Z,79.42
2019-01-29T18:31:01.826Z,79.20
2019-01-29T18:33:29.558Z,78.76
2019-01-29T18:35:57.538Z,78.97
2019-01-29T18:39:05.852Z,79.54
2019-01-29T18:41:34.143Z,80.07
2019-01-29T18:44:02.262Z,80.38
2019-01-29T18:46:30.483Z,80.22
2019-01-29T18:48:59.005Z,80.43
2019-01-29T18:54:02.385Z,81.45
2019-01-29T18:56:30.347Z,80.89
2019-01-29T18:58:58.742Z,81.40
2019-01-29T19:01:26.942Z,81.75
2019-01-29T19:03:54.951Z,81.22
2019-01-29T19:06:22.884Z,81.92
2019-01-29T19:08:51.367Z,82.03
2019-01-29T19:11:19.532Z,82.44
2019-01-29T19:19:52.735Z,83.16
2019-01-29T19:25:16.636Z,83.34
2019-01-29T19:27:44.520Z,83.41
2019-01-29T19:33:06.955Z,83.91
2019-01-29T19:35:35.820Z,83.27
2019-01-29T19:38:44.314Z,83.61
2019-01-29T19:44:30.909Z,83.53
2019-01-29T19:47:18.493Z,82.73
2019-01-29T19:49:46.941Z,83.18
2019-01-29T19:52:14.915Z,83.61
2019-01-29T19:54:43.625Z,83.36
2019-01-29T19:57:11.696Z,82.64
2019-01-29T20:00:20.125Z,82.49
2019-01-29T20:02:48.742Z,82.76
2019-01-29T20:05:16.675Z,82.22
2019-01-29T20:07:44.627Z,81.45
2019-01-29T20:10:32.560Z,82.12
2019-01-29T20:16:36.021Z,81.87
2019-01-29T20:19:04.870Z,81.63
2019-01-29T20:24:28.726Z,80.98
2019-01-29T20:26:57.096Z,81.37
2019-01-29T20:29:44.667Z,81.35
2019-01-29T20:32:13.576Z,81.29
2019-01-29T20:35:21.962Z,81.13
2019-01-29T20:37:50.897Z,81.23
2019-01-29T20:40:59.164Z,81.59
2019-01-29T20:43:27.201Z,81.68
2019-01-29T20:45:55.800Z,81.83
2019-01-29T20:48:24.279Z,82.37
2019-01-29T20:50:54.269Z,81.42
2019-01-29T20:53:41.430Z,81.67
2019-01-29T21:02:13.209Z,81.98
2019-01-29T21:04:42.176Z,82.09
2019-01-29T21:07:10.881Z,81.72
2019-01-29T21:09:40.699Z,81.82
2019-01-29T21:12:51.247Z,81.62
2019-01-29T21:15:20.459Z,81.87
2019-01-29T21:17:49.062Z,81.67
2019-01-29T21:20:37.623Z,81.35
2019-01-29T21:23:05.859Z,80.59
2019-01-29T21:25:35.631Z,80.15
2019-01-29T21:28:44.587Z,80.03
2019-01-29T21:31:32.519Z,80.34
2019-01-29T21:34:01.479Z,80.57
2019-01-29T21:36:30.466Z,80.77
2019-01-29T21:39:39.485Z,80.84
2019-01-29T21:42:08.020Z,81.49
2019-01-29T21:44:56.338Z,81.39
2019-01-29T21:47:43.300Z,81.57
2019-01-29T21:53:31.825Z,81.28
2019-01-29T21:56:00.558Z,81.29
2019-01-29T21:58:29.189Z,81.52
2019-01-29T22:00:57.051Z,81.61
2019-01-29T22:03:25.805Z,81.54
2019-01-29T22:05:54.381Z,81.26
2019-01-29T22:08:43.701Z,81.02
2019-01-29T22:11:12.360Z,81.51
2019-01-29T22:13:41.035Z,81.80
2019-01-29T22:16:09.227Z,81.94
2019-01-29T22:18:37.955Z,82.36
2019-01-29T22:24:07.402Z,82.45
2019-01-29T22:26:54.497Z,82.75
2019-01-29T22:29:23.390Z,82.86
2019-01-29T22:31:52.554Z,83.43
2019-01-29T22:34:20.781Z,83.41
2019-01-29T22:37:07.979Z,83.20
2019-01-29T22:42:31.326Z,83.38
2019-01-29T22:44:59.829Z,82.97
2019-01-29T22:47:28.091Z,83.44
2019-01-29T22:49:56.590Z,83.87
2019-01-29T22:52:24.673Z,84.05
2019-01-29T22:54:52.851Z,83.94
2019-01-29T23:03:31.993Z,83.82
2019-01-29T23:06:38.518Z,83.71
2019-01-29T23:09:26.467Z,83.85
2019-01-29T23:12:15.039Z,84.05
2019-01-29T23:14:44.406Z,84.11
2019-01-29T23:21:01.324Z,83.94
2019-01-29T23:24:10.076Z,84.42
2019-01-29T23:29:42.962Z,84.51
2019-01-29T23:32:04.447Z,84.09
2019-01-29T23:34:33.540Z,84.43
2019-01-29T23:37:02.050Z,84.57
2019-01-29T23:39:49.861Z,84.20
2019-01-29T23:42:38.230Z,84.61
2019-01-29T23:45:26.302Z,84.86
2019-01-29T23:51:01.169Z,84.22
2019-01-29T23:53:29.310Z,84.58
2019-01-29T23:55:57.859Z,84.37
2019-01-29T23:58:26.293Z,84.28
